createdAt,value
2018-04-27T00:02:27.503Z,20.80
2018-04-27T00:04:55.692Z,20.80
2018-04-27T00:07:23.301Z,20.80
2018-04-27T00:09:51.640Z,20.80
2018-04-27T00:12:19.215Z,20.70
2018-04-27T00:14:46.890Z,20.80
2018-04-27T00:17:15.243Z,20.70
2018-04-27T00:19:42.821Z,20.70
2018-04-27T00:22:10.496Z,20.70
2018-04-27T00:24:38.875Z,20.70
2018-04-27T00:27:07.221Z,20.70
2018-04-27T00:29:34.792Z,20.70
2018-04-27T00:32:02.381Z,20.70
2018-04-27T00:34:30.752Z,20.70
2018-04-27T00:36:59.107Z,20.70
2018-04-27T00:39:27.517Z,20.70
2018-04-27T00:41:55.903Z,20.70
2018-04-27T00:44:24.279Z,20.70
2018-04-27T00:46:52.626Z,20.70
2018-04-27T00:49:20.215Z,20.70
2018-04-27T00:51:48.594Z,20.70
2018-04-27T00:54:16.989Z,20.70
2018-04-27T00:56:45.357Z,20.70
2018-04-27T00:59:13.741Z,20.70
2018-04-27T01:01:42.130Z,20.60
2018-04-27T01:04:10.475Z,20.70
2018-04-27T01:06:38.876Z,20.70
2018-04-27T01:09:06.441Z,20.60
2018-04-27T01:11:34.814Z,20.70
2018-04-27T01:14:02.388Z,20.70
2018-04-27T01:16:30.724Z,20.60
2018-04-27T01:18:58.287Z,20.60
2018-04-27T01:21:26.339Z,20.60
2018-04-27T01:23:53.928Z,20.60
2018-04-27T01:26:21.619Z,20.70
2018-04-27T01:28:50.000Z,20.60
2018-04-27T01:31:18.340Z,20.60
2018-04-27T01:33:45.921Z,20.60
2018-04-27T01:36:13.600Z,20.60
2018-04-27T01:38:41.262Z,20.60
2018-04-27T01:41:08.836Z,20.60
2018-04-27T01:43:37.308Z,20.60
2018-04-27T01:46:05.682Z,20.60
2018-04-27T01:48:33.367Z,20.60
2018-04-27T01:51:01.696Z,20.60
2018-04-27T01:53:29.264Z,20.60
2018-04-27T01:55:57.359Z,20.60
2018-04-27T01:58:25.456Z,20.60
2018-04-27T02:00:53.104Z,20.50
2018-04-27T02:03:21.479Z,20.50
2018-04-27T02:05:49.818Z,20.50
2018-04-27T02:08:17.389Z,20.60
2018-04-27T02:10:44.958Z,20.50
2018-04-27T02:13:12.532Z,20.50
2018-04-27T02:15:40.111Z,20.50
2018-04-27T02:18:08.468Z,20.50
2018-04-27T02:20:36.052Z,20.50
2018-04-27T02:23:04.393Z,20.50
2018-04-27T02:25:31.964Z,20.50
2018-04-27T02:27:59.536Z,20.50
2018-04-27T02:30:27.136Z,20.50
2018-04-27T02:32:55.504Z,20.50
2018-04-27T02:35:23.075Z,20.50
2018-04-27T02:37:50.708Z,20.50
2018-04-27T02:40:19.054Z,20.50
2018-04-27T02:42:46.643Z,20.40
2018-04-27T02:45:15.029Z,20.40
2018-04-27T02:47:43.368Z,20.40
2018-04-27T02:50:10.949Z,20.50
2018-04-27T02:52:38.534Z,20.50
2018-04-27T02:55:06.912Z,20.40
2018-04-27T02:57:34.504Z,20.40
2018-04-27T03:00:02.109Z,20.40
2018-04-27T03:02:29.800Z,20.40
2018-04-27T03:04:58.143Z,20.40
2018-04-27T03:07:26.750Z,20.40
2018-04-27T03:09:54.314Z,20.40
2018-04-27T03:12:22.006Z,20.40
2018-04-27T03:14:49.669Z,20.40
2018-04-27T03:17:20.440Z,20.40
2018-04-27T03:19:48.016Z,20.40
2018-04-27T03:22:15.595Z,20.40
2018-04-27T03:24:43.166Z,20.40
2018-04-27T03:27:11.528Z,20.40
2018-04-27T03:29:39.111Z,20.40
2018-04-27T03:32:06.783Z,20.40
2018-04-27T03:34:35.122Z,20.30
2018-04-27T03:37:03.031Z,20.40
2018-04-27T03:39:31.363Z,20.40
2018-04-27T03:41:58.958Z,20.30
2018-04-27T03:44:27.291Z,20.30
2018-04-27T03:46:55.437Z,20.30
2018-04-27T03:49:23.003Z,20.30
2018-04-27T03:51:50.690Z,20.30
2018-04-27T03:54:18.978Z,20.30
2018-04-27T03:56:46.556Z,20.20
2018-04-27T03:59:15.771Z,20.20
2018-04-27T04:01:56.161Z,20.20
2018-04-27T04:04:35.518Z,20.20
2018-04-27T04:07:03.092Z,20.20
2018-04-27T04:09:30.690Z,20.20
2018-04-27T04:11:58.259Z,20.20
2018-04-27T04:14:25.835Z,20.20
2018-04-27T04:16:54.171Z,20.20
2018-04-27T04:19:21.788Z,20.30
2018-04-27T04:21:49.427Z,20.30
2018-04-27T04:24:17.809Z,20.20
2018-04-27T04:26:46.139Z,20.20
2018-04-27T04:29:13.708Z,20.20
2018-04-27T04:31:41.274Z,20.20
2018-04-27T04:34:08.852Z,20.20
2018-04-27T04:36:36.533Z,20.20
2018-04-27T04:39:04.909Z,20.20
2018-04-27T04:41:32.474Z,20.20
2018-04-27T04:44:00.803Z,20.20
2018-04-27T04:46:28.413Z,20.20
2018-04-27T04:48:57.789Z,20.10
2018-04-27T04:51:26.420Z,20.20
2018-04-27T04:53:54.042Z,20.20
2018-04-27T04:56:21.718Z,20.20
2018-04-27T04:58:50.056Z,20.20
2018-04-27T05:01:17.788Z,20.20
2018-04-27T05:03:46.122Z,20.20
2018-04-27T05:06:13.699Z,20.20
2018-04-27T05:08:41.372Z,20.20
2018-04-27T05:11:09.746Z,20.20
2018-04-27T05:13:37.317Z,20.20
2018-04-27T05:16:05.580Z,20.20
2018-04-27T05:18:36.017Z,20.20
2018-04-27T05:21:04.366Z,20.20
2018-04-27T05:23:33.087Z,20.20
2018-04-27T05:26:01.800Z,20.20
2018-04-27T05:28:29.363Z,20.20
2018-04-27T05:30:58.019Z,20.20
2018-04-27T05:33:26.475Z,20.20
2018-04-27T05:35:54.046Z,20.20
2018-04-27T05:38:21.606Z,20.20
2018-04-27T05:40:49.195Z,20.20
2018-04-27T05:43:16.787Z,20.20
2018-04-27T05:45:44.351Z,20.20
2018-04-27T05:48:11.929Z,20.20
2018-04-27T05:50:39.497Z,20.20
2018-04-27T05:53:07.071Z,20.20
2018-04-27T05:55:34.645Z,20.30
2018-04-27T05:58:03.022Z,20.30
2018-04-27T06:00:30.579Z,20.30
2018-04-27T06:02:58.259Z,20.40
2018-04-27T06:05:28.037Z,20.40
2018-04-27T06:07:56.524Z,20.40
2018-04-27T06:10:24.090Z,20.40
2018-04-27T06:12:51.668Z,20.50
2018-04-27T06:15:19.234Z,20.40
2018-04-27T06:17:47.616Z,20.40
2018-04-27T06:20:15.952Z,20.50
2018-04-27T06:22:47.644Z,20.60
2018-04-27T06:25:15.313Z,20.50
2018-04-27T06:27:43.700Z,20.50
2018-04-27T06:30:12.067Z,20.50
2018-04-27T06:32:39.631Z,20.50
2018-04-27T06:35:07.970Z,20.60
2018-04-27T06:37:35.576Z,20.60
2018-04-27T06:40:03.911Z,20.60
2018-04-27T06:42:31.517Z,20.70
2018-04-27T06:44:59.887Z,20.70
2018-04-27T06:47:27.458Z,20.70
2018-04-27T06:49:55.794Z,20.80
2018-04-27T06:52:23.392Z,20.80
2018-04-27T06:54:50.966Z,20.80
2018-04-27T06:57:19.459Z,20.80
2018-04-27T06:59:47.796Z,20.80
2018-04-27T07:02:15.392Z,20.90
2018-04-27T07:04:43.735Z,20.90
2018-04-27T07:07:11.299Z,20.80
2018-04-27T07:09:38.882Z,20.90
2018-04-27T07:12:07.212Z,20.90
2018-04-27T07:14:34.804Z,21.00
2018-04-27T07:17:02.436Z,20.90
2018-04-27T07:19:30.759Z,21.00
2018-04-27T07:21:58.323Z,20.90
2018-04-27T07:24:25.984Z,21.00
2018-04-27T07:26:53.651Z,21.00
2018-04-27T07:29:21.215Z,21.00
2018-04-27T07:31:49.571Z,21.00
2018-04-27T07:34:17.321Z,21.00
2018-04-27T07:36:44.924Z,21.10
2018-04-27T07:39:13.252Z,21.00
2018-04-27T07:41:40.856Z,21.10
2018-04-27T07:44:08.434Z,21.10
2018-04-27T07:46:36.795Z,21.20
2018-04-27T07:49:04.353Z,21.10
2018-04-27T07:51:32.021Z,21.10
2018-04-27T07:53:59.580Z,21.20
2018-04-27T07:56:27.168Z,21.20
2018-04-27T07:58:55.646Z,21.10
2018-04-27T08:01:24.028Z,21.20
2018-04-27T08:03:51.551Z,21.20
2018-04-27T08:06:19.127Z,21.20
2018-04-27T08:08:47.596Z,21.20
2018-04-27T08:11:15.133Z,21.20
2018-04-27T08:13:42.726Z,21.10
2018-04-27T08:16:10.413Z,21.20
2018-04-27T08:18:38.760Z,21.20
2018-04-27T08:21:06.335Z,21.20
2018-04-27T08:23:34.013Z,21.20
2018-04-27T08:26:02.351Z,21.20
2018-04-27T08:28:29.922Z,21.20
2018-04-27T08:30:57.504Z,21.20
2018-04-27T08:33:25.876Z,21.20
2018-04-27T08:35:53.574Z,21.20
2018-04-27T08:38:21.227Z,21.30
2018-04-27T08:40:49.575Z,21.30
2018-04-27T08:43:17.153Z,21.30
2018-04-27T08:45:45.523Z,21.30
2018-04-27T08:48:13.110Z,21.30
2018-04-27T08:50:40.670Z,21.30
2018-04-27T08:53:09.062Z,21.30
2018-04-27T08:55:36.622Z,21.30
2018-04-27T08:58:04.191Z,21.30
2018-04-27T09:00:31.762Z,21.30
2018-04-27T09:02:59.380Z,21.30
2018-04-27T09:05:27.703Z,21.30
2018-04-27T09:07:56.335Z,21.40
2018-04-27T09:10:24.008Z,21.40
2018-04-27T09:12:52.336Z,21.40
2018-04-27T09:15:19.937Z,21.40
2018-04-27T09:17:47.513Z,21.40
2018-04-27T09:20:15.888Z,21.50
2018-04-27T09:22:44.216Z,21.50
2018-04-27T09:25:11.795Z,21.50
2018-04-27T09:27:39.358Z,21.50
2018-04-27T09:30:06.960Z,21.50
2018-04-27T09:32:35.331Z,21.50
2018-04-27T09:35:03.711Z,21.50
2018-04-27T09:37:32.039Z,21.50
2018-04-27T09:39:59.656Z,21.60
2018-04-27T09:42:28.029Z,21.50
2018-04-27T09:44:56.674Z,21.50
2018-04-27T09:47:24.245Z,21.60
2018-04-27T09:49:51.836Z,21.60
2018-04-27T09:52:19.405Z,21.60
2018-04-27T09:54:47.771Z,21.60
2018-04-27T09:57:15.331Z,21.60
2018-04-27T09:59:42.993Z,21.60
2018-04-27T10:02:10.564Z,21.60
2018-04-27T10:04:38.935Z,21.60
2018-04-27T10:07:06.499Z,21.60
2018-04-27T10:09:34.111Z,21.60
2018-04-27T10:12:01.726Z,21.60
2018-04-27T10:14:30.073Z,21.60
2018-04-27T10:16:57.638Z,21.60
2018-04-27T10:19:26.240Z,21.60
2018-04-27T10:21:53.907Z,21.60
2018-04-27T10:24:23.007Z,21.60
2018-04-27T10:26:50.576Z,21.70
2018-04-27T10:29:18.908Z,21.60
2018-04-27T10:31:46.485Z,21.70
2018-04-27T10:34:14.067Z,21.90
2018-04-27T10:36:41.732Z,21.80
2018-04-27T10:39:09.302Z,21.70
2018-04-27T10:41:37.629Z,22.00
2018-04-27T10:44:05.200Z,22.00
2018-04-27T10:46:32.768Z,22.10
2018-04-27T10:49:00.363Z,22.10
2018-04-27T10:51:28.753Z,22.20
2018-04-27T10:53:57.096Z,22.30
2018-04-27T10:56:25.414Z,22.30
2018-04-27T10:58:53.782Z,22.30
2018-04-27T11:01:22.128Z,22.30
2018-04-27T11:03:49.695Z,22.30
2018-04-27T11:06:17.263Z,22.40
2018-04-27T11:08:44.839Z,22.50
2018-04-27T11:11:12.407Z,22.40
2018-04-27T11:13:40.774Z,22.50
2018-04-27T11:16:08.438Z,22.50
2018-04-27T11:18:36.012Z,22.50
2018-04-27T11:21:04.506Z,22.50
2018-04-27T11:23:32.150Z,22.50
2018-04-27T11:26:00.096Z,22.50
2018-04-27T11:28:27.679Z,22.50
2018-04-27T11:30:55.351Z,22.60
2018-04-27T11:33:23.723Z,22.60
2018-04-27T11:35:51.395Z,22.60
2018-04-27T11:38:19.763Z,22.60
2018-04-27T11:40:47.427Z,22.60
2018-04-27T11:43:15.091Z,22.70
2018-04-27T11:45:42.660Z,22.60
2018-04-27T11:48:10.999Z,22.70
2018-04-27T11:50:38.597Z,22.70
2018-04-27T11:53:06.252Z,22.70
2018-04-27T11:55:33.815Z,22.70
2018-04-27T11:58:01.376Z,22.70
2018-04-27T12:00:28.947Z,22.70
2018-04-27T12:02:57.275Z,22.70
2018-04-27T12:05:25.412Z,22.80
2018-04-27T12:07:53.776Z,22.80
2018-04-27T12:10:22.110Z,22.80
2018-04-27T12:12:49.681Z,22.80
2018-04-27T12:15:17.275Z,22.80
2018-04-27T12:17:45.655Z,22.80
2018-04-27T12:20:13.990Z,22.80
2018-04-27T12:22:41.555Z,22.80
2018-04-27T12:25:09.137Z,22.80
2018-04-27T12:27:36.709Z,22.80
2018-04-27T12:30:04.280Z,22.80
2018-04-27T12:32:32.616Z,22.80
2018-04-27T12:35:00.219Z,22.90
2018-04-27T12:37:28.602Z,22.90
2018-04-27T12:39:57.670Z,22.90
2018-04-27T12:42:26.173Z,22.90
2018-04-27T12:44:53.840Z,22.90
2018-04-27T12:47:21.432Z,22.90
2018-04-27T12:49:49.059Z,22.90
2018-04-27T12:52:16.646Z,22.90
2018-04-27T12:54:45.003Z,22.90
2018-04-27T12:57:13.349Z,22.90
2018-04-27T12:59:40.912Z,22.90
2018-04-27T13:02:08.507Z,22.90
2018-04-27T13:04:36.844Z,22.90
2018-04-27T13:07:04.448Z,23.00
2018-04-27T13:09:32.828Z,22.90
2018-04-27T13:12:01.203Z,23.00
2018-04-27T13:14:28.770Z,23.00
2018-04-27T13:16:57.100Z,23.00
2018-04-27T13:19:25.347Z,23.00
2018-04-27T13:21:52.910Z,23.00
2018-04-27T13:24:20.543Z,23.00
2018-04-27T13:26:48.203Z,23.00
2018-04-27T13:29:15.871Z,23.00
2018-04-27T13:31:43.440Z,23.00
2018-04-27T13:34:11.807Z,23.00
2018-04-27T13:36:40.878Z,23.00
2018-04-27T13:39:08.469Z,23.00
2018-04-27T13:41:36.138Z,23.00
2018-04-27T13:44:04.507Z,23.00
2018-04-27T13:46:33.735Z,23.00
2018-04-27T13:49:01.376Z,23.00
2018-04-27T13:51:29.718Z,23.00
2018-04-27T13:53:57.295Z,23.00
2018-04-27T13:56:25.350Z,23.00
2018-04-27T13:58:53.080Z,23.00
2018-04-27T14:01:20.656Z,23.00
2018-04-27T14:03:48.265Z,23.00
2018-04-27T14:06:15.935Z,23.00
2018-04-27T14:08:45.133Z,23.00
2018-04-27T14:11:12.868Z,23.00
2018-04-27T14:13:40.458Z,23.00
2018-04-27T14:16:08.050Z,23.00
2018-04-27T14:30:16.524Z,23.00
2018-04-27T14:32:44.097Z,23.00
2018-04-27T14:35:12.442Z,23.00
2018-04-27T14:37:40.031Z,23.00
2018-04-27T14:40:08.413Z,22.90
2018-04-27T14:42:36.750Z,23.00
2018-04-27T14:45:04.315Z,22.90
2018-04-27T14:47:31.909Z,22.90
2018-04-27T14:49:59.476Z,22.90
2018-04-27T14:52:27.857Z,22.90
2018-04-27T14:54:56.749Z,22.90
2018-04-27T14:57:25.691Z,22.90
2018-04-27T14:59:56.781Z,22.90
2018-04-27T15:02:26.168Z,22.90
2018-04-27T15:04:53.734Z,22.90
2018-04-27T15:07:21.335Z,22.90
2018-04-27T15:09:48.974Z,22.90
2018-04-27T15:12:17.304Z,22.90
2018-04-27T15:14:44.903Z,22.80
2018-04-27T15:17:12.565Z,22.80
2018-04-27T15:19:40.131Z,22.80
2018-04-27T15:22:08.468Z,22.80
2018-04-27T15:24:37.085Z,22.80
2018-04-27T15:27:05.481Z,22.70
2018-04-27T15:29:33.857Z,22.70
2018-04-27T15:32:02.249Z,22.70
2018-04-27T15:34:30.589Z,22.70
2018-04-27T15:36:58.183Z,22.70
2018-04-27T15:39:27.784Z,22.70
2018-04-27T15:41:56.250Z,22.70
2018-04-27T15:44:23.817Z,22.70
2018-04-27T15:46:51.879Z,22.60
2018-04-27T15:49:19.688Z,22.60
2018-04-27T15:51:47.278Z,22.60
2018-04-27T15:54:15.399Z,22.60
2018-04-27T15:56:43.082Z,22.60
2018-04-27T16:01:56.583Z,22.60
2018-04-27T16:04:24.587Z,22.60
2018-04-27T16:06:56.743Z,22.60
2018-04-27T16:09:26.933Z,22.50
2018-04-27T16:11:54.448Z,22.50
2018-04-27T16:14:22.961Z,22.40
2018-04-27T16:16:50.528Z,22.40
2018-04-27T16:19:18.144Z,22.40
2018-04-27T16:21:45.847Z,22.30
2018-04-27T16:24:13.487Z,22.20
2018-04-27T16:26:41.863Z,22.10
2018-04-27T16:29:10.195Z,22.10
2018-04-27T16:31:37.805Z,22.00
2018-04-27T16:34:06.176Z,22.00
2018-04-27T16:36:34.525Z,21.90
2018-04-27T16:39:02.116Z,21.90
2018-04-27T16:41:30.474Z,21.90
2018-04-27T16:43:58.055Z,21.80
2018-04-27T16:46:26.212Z,21.80
2018-04-27T16:48:53.788Z,21.80
2018-04-27T16:51:22.127Z,21.80
2018-04-27T16:53:49.701Z,21.80
2018-04-27T16:56:17.287Z,21.80
2018-04-27T16:58:45.675Z,21.80
2018-04-27T17:01:14.057Z,21.70
2018-04-27T17:03:42.497Z,21.70
2018-04-27T17:06:10.796Z,21.70
2018-04-27T17:08:38.399Z,21.70
2018-04-27T17:11:05.962Z,21.70
2018-04-27T17:13:33.671Z,21.70
2018-04-27T17:16:01.972Z,21.70
2018-04-27T17:18:29.555Z,21.70
2018-04-27T17:20:57.912Z,21.60
2018-04-27T17:23:26.215Z,21.70
2018-04-27T17:25:53.788Z,21.70
2018-04-27T17:28:22.053Z,21.70
2018-04-27T17:30:51.432Z,21.70
2018-04-27T17:33:19.001Z,21.70
2018-04-27T17:35:47.356Z,21.60
2018-04-27T17:38:14.928Z,21.60
2018-04-27T17:40:44.036Z,21.60
2018-04-27T17:43:12.404Z,21.60
2018-04-27T17:45:40.150Z,21.60
2018-04-27T17:48:08.519Z,21.60
2018-04-27T17:50:36.122Z,21.60
2018-04-27T17:53:04.503Z,21.60
2018-04-27T17:55:32.891Z,21.60
2018-04-27T17:58:01.254Z,21.50
2018-04-27T18:00:28.918Z,21.50
2018-04-27T18:02:57.519Z,21.50
2018-04-27T18:05:25.854Z,21.50
2018-04-27T18:07:53.452Z,21.60
2018-04-27T18:10:21.811Z,21.50
2018-04-27T18:12:49.392Z,21.50
2018-04-27T18:15:17.724Z,21.60
2018-04-27T18:17:45.344Z,21.50
2018-04-27T18:20:14.716Z,21.70
2018-04-27T18:22:42.289Z,21.70
2018-04-27T18:25:10.151Z,21.70
2018-04-27T18:27:37.808Z,21.60
2018-04-27T18:30:05.392Z,21.70
2018-04-27T18:32:33.727Z,21.80
2018-04-27T18:35:01.303Z,21.70
2018-04-27T18:37:28.894Z,21.70
2018-04-27T18:39:57.664Z,21.70
2018-04-27T18:42:26.364Z,21.70
2018-04-27T18:44:55.347Z,21.70
2018-04-27T18:47:22.914Z,21.70
2018-04-27T18:49:50.512Z,21.60
2018-04-27T18:52:18.287Z,21.50
2018-04-27T18:54:45.911Z,21.40
2018-04-27T18:57:14.424Z,21.40
2018-04-27T18:59:46.819Z,21.40
2018-04-27T19:02:14.423Z,21.30
2018-04-27T19:04:42.820Z,21.30
2018-04-27T19:07:11.177Z,21.30
2018-04-27T19:09:40.369Z,21.30
2018-04-27T19:12:07.957Z,21.30
2018-04-27T19:14:36.426Z,21.30
2018-04-27T19:17:04.004Z,21.30
2018-04-27T19:19:32.361Z,21.30
2018-04-27T19:21:59.940Z,21.30
2018-04-27T19:24:29.464Z,21.30
2018-04-27T19:26:57.057Z,21.30
2018-04-27T19:29:25.473Z,21.30
2018-04-27T19:31:53.205Z,21.30
2018-04-27T19:34:20.821Z,21.30
2018-04-27T19:36:49.290Z,21.30
2018-04-27T19:39:19.190Z,21.30
2018-04-27T19:41:47.079Z,21.30
2018-04-27T19:44:15.456Z,21.30
2018-04-27T19:46:43.119Z,21.20
2018-04-27T19:49:10.762Z,21.20
2018-04-27T19:51:38.351Z,21.20
2018-04-27T19:54:06.946Z,21.20
2018-04-27T19:56:35.415Z,21.20
2018-04-27T19:59:03.835Z,21.20
2018-04-27T20:01:32.153Z,21.20
2018-04-27T20:03:59.732Z,21.20
2018-04-27T20:06:27.499Z,21.20
2018-04-27T20:08:56.290Z,21.20
2018-04-27T20:11:25.570Z,21.20
2018-04-27T20:13:53.110Z,21.10
2018-04-27T20:16:32.728Z,21.20
2018-04-27T20:19:00.360Z,21.10
2018-04-27T20:21:28.737Z,21.10
2018-04-27T20:23:57.181Z,21.10
2018-04-27T20:26:25.791Z,21.10
2018-04-27T20:28:54.133Z,21.10
2018-04-27T20:31:21.737Z,21.10
2018-04-27T20:33:49.314Z,21.10
2018-04-27T20:36:17.660Z,21.10
2018-04-27T20:38:45.249Z,21.10
2018-04-27T20:41:15.357Z,21.00
2018-04-27T20:43:43.744Z,21.10
2018-04-27T20:46:12.228Z,21.10
2018-04-27T20:48:40.608Z,21.10
2018-04-27T20:51:08.940Z,21.00
2018-04-27T20:57:07.564Z,21.00
2018-04-27T20:59:35.167Z,21.00
2018-04-27T21:02:03.500Z,21.00
2018-04-27T21:04:31.181Z,21.00
2018-04-27T21:07:00.244Z,21.00
2018-04-27T21:09:27.856Z,21.00
2018-04-27T21:11:56.947Z,21.00
2018-04-27T21:14:24.621Z,21.00
2018-04-27T21:16:53.106Z,21.00
2018-04-27T21:19:21.481Z,21.00
2018-04-27T21:21:49.883Z,21.00
2018-04-27T21:24:17.527Z,21.00
2018-04-27T21:26:45.871Z,20.90
2018-04-27T21:29:17.360Z,20.90
2018-04-27T21:31:45.687Z,20.90
2018-04-27T21:34:13.250Z,20.90
2018-04-27T21:36:44.347Z,21.00
2018-04-27T21:39:16.460Z,20.90
2018-04-27T21:41:49.875Z,20.90
2018-04-27T21:44:37.115Z,20.90
2018-04-27T21:50:18.455Z,20.80
2018-04-27T21:52:46.941Z,20.80
2018-04-27T21:55:15.297Z,20.90
2018-04-27T21:57:44.411Z,20.80
2018-04-27T22:00:12.775Z,20.80
2018-04-27T22:02:45.079Z,20.80
2018-04-27T22:08:08.729Z,20.80
2018-04-27T22:10:36.392Z,20.80
2018-04-27T22:13:04.056Z,20.80
2018-04-27T22:15:31.720Z,20.80
2018-04-27T22:18:00.928Z,20.80
2018-04-27T22:20:32.220Z,20.80
2018-04-27T22:22:59.833Z,20.80
2018-04-27T22:25:42.234Z,20.80
2018-04-27T22:28:10.380Z,20.70
2018-04-27T22:30:43.554Z,20.80
2018-04-27T22:36:38.798Z,20.70
2018-04-27T22:42:04.904Z,20.70
2018-04-27T22:44:38.092Z,20.70
2018-04-27T22:47:06.472Z,20.70
2018-04-27T22:49:34.826Z,20.70
2018-04-27T22:52:02.515Z,20.60
2018-04-27T22:54:31.838Z,20.70
2018-04-27T22:59:52.123Z,20.70
2018-04-27T23:02:23.385Z,20.70
2018-04-27T23:04:53.904Z,20.70
2018-04-27T23:07:22.287Z,20.70
2018-04-27T23:09:50.657Z,20.70
2018-04-27T23:12:19.149Z,20.70
2018-04-27T23:14:49.161Z,20.70
2018-04-27T23:17:17.513Z,20.70
2018-04-27T23:19:49.095Z,20.70
2018-04-27T23:22:29.320Z,20.70
2018-04-27T23:25:03.841Z,20.60
2018-04-27T23:27:31.446Z,20.70
2018-04-27T23:29:59.829Z,20.70
2018-04-27T23:32:28.211Z,20.60
2018-04-27T23:34:57.723Z,20.70
2018-04-27T23:37:25.775Z,20.70
2018-04-27T23:39:54.170Z,20.70
2018-04-27T23:42:22.525Z,20.70
2018-04-27T23:44:50.107Z,20.70
2018-04-27T23:47:18.482Z,20.70
2018-04-27T23:49:46.861Z,20.60
2018-04-27T23:52:15.214Z,20.60
2018-04-27T23:54:42.798Z,20.70
2018-04-27T23:57:11.155Z,20.70
2018-04-27T23:59:43.156Z,20.70
